Terminal Aerodrome Forecast
Issued by NWS

Home | Current Version | Previous Version | Text Only | Print | Product List | Glossary On
Versions: 1 2 3 4 5 6 7 8 9 10 11 12 13 14 15 16 17 18 19 20 21
654
FTUS41 KOKX 260256 AAA
TAFSWF
TAF AMD
KSWF 260256Z 2603/2706 VRB03KT P6SM SCT050
     FM260600 VRB03KT 3SM BR SCT015
      TEMPO 2608/2612 BKN015
     FM261300 VRB03KT P6SM FEW020 BKN250
     FM261600 09004KT P6SM FEW025 BKN250
     FM261800 12005KT P6SM FEW030 BKN250
      AMD NOT SKED=

USA.gov is the U.S. government's official web portal to all federal, state and local government web resources and services.